createdAt,value
2018-01-07T00:02:00.000Z,98453
2018-01-07T00:07:00.000Z,98470
2018-01-07T00:12:00.000Z,98482
2018-01-07T00:17:00.000Z,98490
2018-01-07T00:22:00.000Z,98474
2018-01-07T00:27:00.000Z,98482
2018-01-07T00:32:00.000Z,98495
2018-01-07T00:37:00.000Z,98494
2018-01-07T00:42:00.000Z,98504
2018-01-07T00:47:00.000Z,98527
2018-01-07T00:52:00.000Z,98525
2018-01-07T00:57:00.000Z,98526
2018-01-07T01:02:00.000Z,98513
2018-01-07T01:07:00.000Z,98535
2018-01-07T01:12:00.000Z,98539
2018-01-07T01:17:00.000Z,98552
2018-01-07T01:22:00.000Z,98546
2018-01-07T01:27:00.000Z,98555
2018-01-07T01:32:00.000Z,98560
2018-01-07T01:37:00.000Z,98562
2018-01-07T01:42:00.000Z,98573
2018-01-07T01:47:00.000Z,98576
2018-01-07T01:52:00.000Z,98574
2018-01-07T01:57:00.000Z,98576
2018-01-07T02:02:00.000Z,98587
2018-01-07T02:07:00.000Z,98583
2018-01-07T02:12:00.000Z,98592
2018-01-07T02:17:00.000Z,98592
2018-01-07T02:22:00.000Z,98594
2018-01-07T02:27:00.000Z,98603
2018-01-07T02:32:00.000Z,98609
2018-01-07T02:38:00.000Z,98611
2018-01-07T02:43:00.000Z,98609
2018-01-07T02:48:00.000Z,98615
2018-01-07T02:53:00.000Z,98615
2018-01-07T02:58:00.000Z,98627
2018-01-07T03:03:00.000Z,98619
2018-01-07T03:08:00.000Z,98613
2018-01-07T03:13:00.000Z,98618
2018-01-07T03:18:00.000Z,98632
2018-01-07T03:23:00.000Z,98630
2018-01-07T03:28:00.000Z,98632
2018-01-07T03:33:00.000Z,98646
2018-01-07T03:38:00.000Z,98648
2018-01-07T03:43:00.000Z,98654
2018-01-07T03:48:00.000Z,98654
2018-01-07T03:53:00.000Z,98643
2018-01-07T03:58:00.000Z,98661
2018-01-07T04:03:00.000Z,98665
2018-01-07T04:08:00.000Z,98688
2018-01-07T04:13:00.000Z,98693
2018-01-07T04:18:00.000Z,98690
2018-01-07T04:23:00.000Z,98681
2018-01-07T04:28:00.000Z,98696
2018-01-07T04:33:00.000Z,98691
2018-01-07T04:38:00.000Z,98702
2018-01-07T04:43:00.000Z,98701
2018-01-07T04:48:00.000Z,98706
2018-01-07T04:53:00.000Z,98710
2018-01-07T04:58:00.000Z,98711
2018-01-07T05:03:00.000Z,98704
2018-01-07T05:08:00.000Z,98724
2018-01-07T05:13:00.000Z,98717
2018-01-07T05:18:00.000Z,98728
2018-01-07T05:23:00.000Z,98743
2018-01-07T05:28:00.000Z,98759
2018-01-07T05:33:00.000Z,98762
2018-01-07T05:38:00.000Z,98754
2018-01-07T05:43:00.000Z,98760
2018-01-07T05:48:00.000Z,98784
2018-01-07T05:53:00.000Z,98781
2018-01-07T05:58:00.000Z,98805
2018-01-07T06:03:00.000Z,98813
2018-01-07T06:08:00.000Z,98824
2018-01-07T06:13:00.000Z,98839
2018-01-07T06:18:00.000Z,98835
2018-01-07T06:23:00.000Z,98838
2018-01-07T06:28:00.000Z,98843
2018-01-07T06:33:00.000Z,98856
2018-01-07T06:38:00.000Z,98870
2018-01-07T06:43:00.000Z,98873
2018-01-07T06:48:00.000Z,98873
2018-01-07T06:53:00.000Z,98883
2018-01-07T06:58:00.000Z,98914
2018-01-07T07:03:00.000Z,98922
2018-01-07T07:08:00.000Z,98936
2018-01-07T07:13:00.000Z,98934
2018-01-07T07:18:00.000Z,98948
2018-01-07T07:23:00.000Z,98943
2018-01-07T07:28:00.000Z,98978
2018-01-07T07:33:00.000Z,98994
2018-01-07T07:38:00.000Z,98991
2018-01-07T07:43:00.000Z,99000
2018-01-07T07:48:00.000Z,99015
2018-01-07T07:53:00.000Z,99016
2018-01-07T07:58:00.000Z,99032
2018-01-07T08:03:00.000Z,99041
2018-01-07T08:08:00.000Z,99033
2018-01-07T08:13:00.000Z,99049
2018-01-07T08:18:00.000Z,99057
2018-01-07T08:23:00.000Z,99067
2018-01-07T08:28:00.000Z,99075
2018-01-07T08:33:00.000Z,99072
2018-01-07T08:38:00.000Z,99075
2018-01-07T08:44:00.000Z,99090
2018-01-07T08:49:00.000Z,99075
2018-01-07T08:54:00.000Z,99094
2018-01-07T08:59:00.000Z,99094
2018-01-07T09:04:00.000Z,99110
2018-01-07T09:09:00.000Z,99111
2018-01-07T09:14:00.000Z,99114
2018-01-07T09:19:00.000Z,99131
2018-01-07T09:24:00.000Z,99129
2018-01-07T09:29:00.000Z,99127
2018-01-07T09:34:00.000Z,99123
2018-01-07T09:39:00.000Z,99134
2018-01-07T09:44:00.000Z,99126
2018-01-07T09:49:00.000Z,99139
2018-01-07T09:54:00.000Z,99122
2018-01-07T09:59:00.000Z,99120
2018-01-07T10:04:00.000Z,99125
2018-01-07T10:09:00.000Z,99114
2018-01-07T10:14:00.000Z,99122
2018-01-07T10:19:00.000Z,99123
2018-01-07T10:24:00.000Z,99127
2018-01-07T10:29:00.000Z,99135
2018-01-07T10:34:00.000Z,99136
2018-01-07T10:39:00.000Z,99137
2018-01-07T10:44:00.000Z,99151
2018-01-07T10:49:00.000Z,99155
2018-01-07T10:54:00.000Z,99168
2018-01-07T10:59:00.000Z,99174
2018-01-07T11:04:00.000Z,99183
2018-01-07T11:09:00.000Z,99179
2018-01-07T11:14:00.000Z,99192
2018-01-07T11:19:00.000Z,99192
2018-01-07T11:24:00.000Z,99185
2018-01-07T11:29:00.000Z,99204
2018-01-07T11:34:00.000Z,99219
2018-01-07T11:39:00.000Z,99214
2018-01-07T11:44:00.000Z,99220
2018-01-07T11:49:00.000Z,99228
2018-01-07T11:54:00.000Z,99229
2018-01-07T11:59:00.000Z,99229
2018-01-07T12:04:00.000Z,99228
2018-01-07T12:09:00.000Z,99238
2018-01-07T12:14:00.000Z,99226
2018-01-07T12:19:00.000Z,99222
2018-01-07T12:24:00.000Z,99217
2018-01-07T12:29:00.000Z,99207
2018-01-07T12:34:00.000Z,99195
2018-01-07T12:39:00.000Z,99186
2018-01-07T12:44:00.000Z,99188
2018-01-07T12:49:00.000Z,99185
2018-01-07T12:54:00.000Z,99176
2018-01-07T12:59:00.000Z,99181
2018-01-07T13:04:00.000Z,99179
2018-01-07T13:09:00.000Z,99194
2018-01-07T13:14:00.000Z,99215
2018-01-07T13:19:00.000Z,99232
2018-01-07T13:24:00.000Z,99233
2018-01-07T13:29:00.000Z,99238
2018-01-07T13:34:00.000Z,99241
2018-01-07T13:39:00.000Z,99244
2018-01-07T13:44:00.000Z,99240
2018-01-07T13:49:00.000Z,99264
2018-01-07T13:54:00.000Z,99263
2018-01-07T13:59:00.000Z,99260
2018-01-07T14:04:00.000Z,99276
2018-01-07T14:09:00.000Z,99281
2018-01-07T14:14:00.000Z,99287
2018-01-07T14:19:00.000Z,99286
2018-01-07T14:24:00.000Z,99285
2018-01-07T14:29:00.000Z,99303
2018-01-07T14:34:00.000Z,99283
2018-01-07T14:39:00.000Z,99292
2018-01-07T14:45:00.000Z,99297
2018-01-07T14:50:00.000Z,99318
2018-01-07T14:55:00.000Z,99314
2018-01-07T15:00:00.000Z,99331
2018-01-07T15:05:00.000Z,99337
2018-01-07T15:10:00.000Z,99335
2018-01-07T15:15:00.000Z,99352
2018-01-07T15:20:00.000Z,99354
2018-01-07T15:25:00.000Z,99369
2018-01-07T15:30:00.000Z,99364
2018-01-07T15:35:00.000Z,99363
2018-01-07T15:40:00.000Z,99369
2018-01-07T15:45:00.000Z,99388
2018-01-07T15:50:00.000Z,99396
2018-01-07T15:55:00.000Z,99399
2018-01-07T16:00:00.000Z,99404
2018-01-07T16:05:00.000Z,99398
2018-01-07T16:10:00.000Z,99399
2018-01-07T16:15:00.000Z,99418
2018-01-07T16:20:00.000Z,99433
2018-01-07T16:25:00.000Z,99429
2018-01-07T16:30:00.000Z,99425
2018-01-07T16:35:00.000Z,99438
2018-01-07T16:40:00.000Z,99447
2018-01-07T16:45:00.000Z,99458
2018-01-07T16:50:00.000Z,99462
2018-01-07T16:55:00.000Z,99460
2018-01-07T17:00:00.000Z,99454
2018-01-07T17:05:00.000Z,99452
2018-01-07T17:10:00.000Z,99458
2018-01-07T17:15:00.000Z,99459
2018-01-07T17:20:00.000Z,99449
2018-01-07T17:25:00.000Z,99456
2018-01-07T17:30:00.000Z,99457
2018-01-07T17:35:00.000Z,99454
2018-01-07T17:40:00.000Z,99461
2018-01-07T17:45:00.000Z,99466
2018-01-07T17:50:00.000Z,99478
2018-01-07T17:55:00.000Z,99477
2018-01-07T18:00:00.000Z,99487
2018-01-07T18:05:00.000Z,99498
2018-01-07T18:10:00.000Z,99507
2018-01-07T18:15:00.000Z,99494
2018-01-07T18:20:00.000Z,99500
2018-01-07T18:25:00.000Z,99499
2018-01-07T18:30:00.000Z,99503
2018-01-07T18:35:00.000Z,99515
2018-01-07T18:40:00.000Z,99512
2018-01-07T18:45:00.000Z,99514
2018-01-07T18:50:00.000Z,99512
2018-01-07T18:55:00.000Z,99505
2018-01-07T19:00:00.000Z,99510
2018-01-07T19:05:00.000Z,99518
2018-01-07T19:10:00.000Z,99508
2018-01-07T19:15:00.000Z,99526
2018-01-07T19:20:00.000Z,99520
2018-01-07T19:25:00.000Z,99522
2018-01-07T19:30:00.000Z,99519
2018-01-07T19:35:00.000Z,99502
2018-01-07T19:40:00.000Z,99517
2018-01-07T19:45:00.000Z,99511
2018-01-07T19:50:00.000Z,99499
2018-01-07T19:55:00.000Z,99503
2018-01-07T20:00:00.000Z,99519
2018-01-07T20:05:00.000Z,99519
2018-01-07T20:10:00.000Z,99548
2018-01-07T20:15:00.000Z,99540
2018-01-07T20:21:00.000Z,99552
2018-01-07T20:26:00.000Z,99546
2018-01-07T20:31:00.000Z,99545
2018-01-07T20:36:00.000Z,99535
2018-01-07T20:41:00.000Z,99549
2018-01-07T20:46:00.000Z,99538
2018-01-07T20:51:00.000Z,99551
2018-01-07T20:56:00.000Z,99559
2018-01-07T21:01:00.000Z,99564
2018-01-07T21:06:00.000Z,99565
2018-01-07T21:11:00.000Z,99567
2018-01-07T21:16:00.000Z,99569
2018-01-07T21:21:00.000Z,99582
2018-01-07T21:26:00.000Z,99575
2018-01-07T21:31:00.000Z,99568
2018-01-07T21:36:00.000Z,99565
2018-01-07T21:41:00.000Z,99573
2018-01-07T21:46:00.000Z,99572
2018-01-07T21:51:00.000Z,99571
2018-01-07T21:56:00.000Z,99564
2018-01-07T22:01:00.000Z,99566
2018-01-07T22:06:00.000Z,99561
2018-01-07T22:11:00.000Z,99564
2018-01-07T22:16:00.000Z,99580
2018-01-07T22:21:00.000Z,99582
2018-01-07T22:26:00.000Z,99582
2018-01-07T22:31:00.000Z,99564
2018-01-07T22:36:00.000Z,99565
2018-01-07T22:41:00.000Z,99571
2018-01-07T22:46:00.000Z,99575
2018-01-07T22:51:00.000Z,99574
2018-01-07T22:56:00.000Z,99576
2018-01-07T23:01:00.000Z,99561
2018-01-07T23:06:00.000Z,99568
2018-01-07T23:11:00.000Z,99568
2018-01-07T23:16:00.000Z,99572
2018-01-07T23:21:00.000Z,99560
2018-01-07T23:26:00.000Z,99553
2018-01-07T23:31:00.000Z,99561
2018-01-07T23:36:00.000Z,99556
2018-01-07T23:41:00.000Z,99566
2018-01-07T23:46:00.000Z,99570
2018-01-07T23:51:00.000Z,99555
2018-01-07T23:56:00.000Z,99572
